Time;durP1;ratioP1;P1;durP2;ratioP2;P2;SDS_P1;SDS_P2;PMS_P1;PMS_P2;Temp;Humidity;BMP_temperature;BMP_pressure;BME280_temperature;BME280_humidity;BME280_pressure;Samples;Min_cycle;Max_cycle;Signal;HPM_P1;HPM_P2
2024/03/03 00:02:02;;;;;;;4.43;4.03;;;;;;;18.93;53.88;95985.97;5026466;28;20217;-25
2024/03/03 00:04:28;;;;;;;5.27;4.77;;;;;;;18.93;53.99;95997.03;5024812;28;20248;-25
2024/03/03 00:06:55;;;;;;;4.97;4.47;;;;;;;18.93;54.11;96003.78;5024144;28;20206;-27
2024/03/03 00:09:22;;;;;;;5.00;4.20;;;;;;;18.94;54.04;95995.31;5033747;28;20697;-25
2024/03/03 00:11:48;;;;;;;5.40;4.53;;;;;;;18.93;53.72;95994.47;5033697;28;20259;-25
2024/03/03 00:14:15;;;;;;;4.60;4.20;;;;;;;18.93;53.81;95985.97;5031497;28;20293;-25
2024/03/03 00:16:42;;;;;;;5.67;4.63;;;;;;;18.93;54.11;95991.06;5027977;28;20201;-26
2024/03/03 00:19:09;;;;;;;4.20;3.80;;;;;;;18.92;53.97;95992.75;5029323;28;20264;-25
2024/03/03 00:21:35;;;;;;;4.50;4.10;;;;;;;18.91;53.78;95985.94;5028393;28;20221;-26
2024/03/03 00:24:02;;;;;;;4.03;3.67;;;;;;;18.91;54.04;95987.63;5014014;28;20226;-26
2024/03/03 00:26:30;;;;;;;4.57;4.17;;;;;;;18.93;53.89;95981.75;5030012;28;20205;-25
2024/03/03 00:28:57;;;;;;;4.53;4.13;;;;;;;18.93;53.77;95980.88;5027990;28;20206;-26
2024/03/03 00:31:24;;;;;;;4.57;4.17;;;;;;;18.94;53.88;95991.09;5027331;28;20204;-26
2024/03/03 00:33:50;;;;;;;4.57;3.93;;;;;;;18.93;54.13;95993.59;5021795;28;20599;-26
2024/03/03 00:36:17;;;;;;;4.43;4.03;;;;;;;18.93;54.13;95994.47;5033076;28;20634;-25
2024/03/03 00:38:44;;;;;;;5.60;4.50;;;;;;;18.92;53.95;96000.38;5028984;28;20306;-26
2024/03/03 00:41:11;;;;;;;4.97;4.17;;;;;;;18.93;54.11;95997.03;5024709;28;20229;-28
2024/03/03 00:43:37;;;;;;;5.90;4.60;;;;;;;18.92;53.88;95991.91;5030555;28;20226;-25
2024/03/03 00:46:05;;;;;;;4.60;4.10;;;;;;;18.93;54.04;95991.06;5027122;28;20233;-25
2024/03/03 00:48:31;;;;;;;4.83;4.40;;;;;;;18.92;54.16;95986.81;5029869;28;20288;-25
2024/03/03 00:50:59;;;;;;;4.50;4.10;;;;;;;18.93;53.81;95983.44;5032325;28;20209;-25
2024/03/03 00:53:25;;;;;;;4.60;4.20;;;;;;;18.92;53.90;95981.72;5024773;28;20272;-26
2024/03/03 00:55:52;;;;;;;4.87;4.43;;;;;;;18.93;54.00;95986.84;5019911;28;20641;-25
2024/03/03 00:58:20;;;;;;;4.60;4.20;;;;;;;18.92;54.04;95974.09;5020149;28;20264;-25
2024/03/03 01:00:47;;;;;;;4.37;3.97;;;;;;;18.83;54.23;95953.59;5019602;28;20635;-27
2024/03/03 01:03:13;;;;;;;4.97;4.47;;;;;;;18.90;54.10;95948.63;5016975;28;20226;-29
2024/03/03 01:05:40;;;;;;;4.73;4.23;;;;;;;18.92;53.99;95946.09;5017301;28;20202;-26
2024/03/03 01:08:06;;;;;;;4.70;4.23;;;;;;;18.91;53.84;95940.13;5020952;28;20747;-26
2024/03/03 01:10:33;;;;;;;4.97;4.47;;;;;;;18.92;54.09;95933.38;5019742;28;20206;-25
2024/03/03 01:13:00;;;;;;;4.83;4.33;;;;;;;18.93;53.81;95935.06;5026307;28;20280;-25
2024/03/03 01:15:26;;;;;;;5.20;4.63;;;;;;;18.92;53.88;95949.47;5031112;28;20217;-26
2024/03/03 01:17:53;;;;;;;4.93;4.30;;;;;;;18.91;54.07;95937.59;5027113;28;20202;-25
2024/03/03 01:20:19;;;;;;;5.40;4.90;;;;;;;18.91;54.45;95944.34;5023207;28;20229;-25
2024/03/03 01:22:46;;;;;;;4.70;4.30;;;;;;;18.92;53.64;95938.47;5020807;28;20566;-29
2024/03/03 01:25:13;;;;;;;4.50;4.10;;;;;;;18.91;54.01;95932.50;5021865;28;20616;-25
2024/03/03 01:27:39;;;;;;;5.07;4.57;;;;;;;18.92;53.97;95923.19;5029212;28;20206;-25
2024/03/03 01:30:06;;;;;;;5.87;5.07;;;;;;;18.92;53.95;95923.19;5022236;28;20296;-25
2024/03/03 01:32:33;;;;;;;5.10;4.23;;;;;;;18.91;54.15;95912.13;5029307;28;20229;-26
2024/03/03 01:34:59;;;;;;;5.00;4.50;;;;;;;18.91;54.02;95916.38;5017594;28;20756;-25
2024/03/03 01:37:26;;;;;;;5.43;4.67;;;;;;;18.91;54.34;95917.22;5020432;28;20205;-26
2024/03/03 01:39:53;;;;;;;4.77;4.37;;;;;;;18.91;54.22;95917.22;5018033;28;20198;-25
2024/03/03 01:42:19;;;;;;;5.23;4.73;;;;;;;18.90;54.20;95902.81;5029699;28;20251;-32
2024/03/03 01:44:47;;;;;;;4.90;4.50;;;;;;;18.91;53.77;95913.81;5022022;28;20309;-26
2024/03/03 01:47:13;;;;;;;4.83;4.40;;;;;;;18.90;53.93;95899.38;5026549;28;20202;-27
2024/03/03 01:49:40;;;;;;;5.03;4.53;;;;;;;18.88;54.18;95895.97;5023940;28;20213;-25
2024/03/03 01:52:07;;;;;;;5.03;4.53;;;;;;;18.92;54.10;95892.63;5024270;28;20260;-26
2024/03/03 01:54:34;;;;;;;5.20;4.73;;;;;;;18.92;53.96;95892.63;5022391;28;20229;-28
2024/03/03 01:57:02;;;;;;;5.43;4.90;;;;;;;18.89;54.18;95892.59;5029959;28;20201;-25
2024/03/03 01:59:29;;;;;;;5.03;4.53;;;;;;;18.92;53.95;95895.19;5027394;28;20209;-25
2024/03/03 02:01:55;;;;;;;5.30;4.80;;;;;;;18.89;54.10;95884.97;5022680;28;20225;-26
2024/03/03 02:04:22;;;;;;;5.23;4.73;;;;;;;18.91;54.04;95889.22;5009197;28;20224;-29
2024/03/03 02:06:49;;;;;;;5.43;4.93;;;;;;;18.91;54.14;95885.81;5022890;28;20198;-25
2024/03/03 02:09:15;;;;;;;5.87;5.27;;;;;;;18.90;53.71;95877.34;5015027;28;20208;-25
2024/03/03 02:11:43;;;;;;;4.70;4.30;;;;;;;18.88;54.38;95875.59;5028755;28;21745;-26
2024/03/03 02:14:09;;;;;;;5.40;4.77;;;;;;;18.91;54.08;95875.63;5017612;28;20229;-25
2024/03/03 02:16:36;;;;;;;5.37;4.87;;;;;;;18.88;54.23;95862.88;5023089;28;20201;-25
2024/03/03 02:19:02;;;;;;;6.50;5.07;;;;;;;18.91;54.06;95878.19;5024997;28;20688;-29
2024/03/03 02:21:29;;;;;;;4.97;4.57;;;;;;;18.91;54.14;95876.50;5029387;28;20201;-26
2024/03/03 02:23:56;;;;;;;5.17;4.67;;;;;;;18.91;53.87;95888.38;5021424;28;20654;-25
2024/03/03 02:26:23;;;;;;;5.70;5.10;;;;;;;18.90;53.92;95881.56;5019771;28;20202;-26
2024/03/03 02:28:51;;;;;;;5.47;4.83;;;;;;;18.90;53.93;95879.03;5018891;28;20248;-25
2024/03/03 02:31:18;;;;;;;5.80;5.00;;;;;;;18.91;54.04;95879.06;5020702;28;20285;-25
2024/03/03 02:33:45;;;;;;;6.17;5.27;;;;;;;18.87;54.13;95863.72;5028959;28;20222;-25
2024/03/03 02:36:12;;;;;;;5.43;4.93;;;;;;;18.91;54.07;95865.47;5026244;28;20592;-25
2024/03/03 02:38:42;;;;;;;5.87;5.27;;;;;;;18.91;54.04;95878.19;5025365;28;20271;-25
2024/03/03 02:41:08;;;;;;;5.10;4.60;;;;;;;18.82;53.88;95866.19;5031751;28;20583;-25
2024/03/03 02:43:35;;;;;;;5.73;5.13;;;;;;;18.88;54.25;95867.97;5030662;28;20692;-25
2024/03/03 02:46:01;;;;;;;6.53;5.40;;;;;;;18.90;53.94;95867.16;5040385;28;20229;-25
2024/03/03 02:48:28;;;;;;;6.20;5.30;;;;;;;18.89;54.02;95870.53;5023126;28;20704;-26
2024/03/03 02:50:55;;;;;;;5.77;5.27;;;;;;;18.90;53.85;95869.72;5019668;28;20260;-25
2024/03/03 02:53:21;;;;;;;5.20;4.70;;;;;;;18.90;54.10;95869.72;5024832;28;20703;-25
2024/03/03 02:55:48;;;;;;;5.43;4.90;;;;;;;18.91;53.86;95857.81;5023031;28;20201;-27
2024/03/03 02:58:15;;;;;;;5.80;5.20;;;;;;;18.87;54.10;95853.53;5021349;28;20623;-26
2024/03/03 03:00:41;;;;;;;6.40;5.50;;;;;;;18.91;53.61;95865.47;5019971;28;20205;-25
2024/03/03 03:03:08;;;;;;;5.23;4.73;;;;;;;18.90;53.74;95864.63;5013991;28;20230;-28
2024/03/03 03:05:35;;;;;;;4.73;4.33;;;;;;;18.89;53.85;95867.97;5022010;28;20241;-25
2024/03/03 03:08:01;;;;;;;4.97;4.50;;;;;;;18.79;54.11;95855.13;5018102;28;20202;-25
2024/03/03 03:10:28;;;;;;;6.03;5.20;;;;;;;18.91;53.97;95878.19;5018536;28;20258;-25
2024/03/03 03:12:54;;;;;;;5.70;5.10;;;;;;;18.90;53.93;95867.16;5023094;28;20673;-28
2024/03/03 03:15:21;;;;;;;5.97;5.07;;;;;;;18.91;53.82;95863.78;5024194;28;20205;-25
2024/03/03 03:17:48;;;;;;;6.00;5.40;;;;;;;18.91;53.79;95866.31;5018933;28;20680;-25
2024/03/03 03:20:14;;;;;;;5.87;5.27;;;;;;;18.90;53.93;95864.63;5022189;28;20275;-26
2024/03/03 03:22:41;;;;;;;5.37;4.83;;;;;;;18.90;54.10;95862.09;5026462;28;20340;-25
2024/03/03 03:25:08;;;;;;;5.93;5.20;;;;;;;18.91;54.04;95860.38;5022380;28;20271;-28
2024/03/03 03:27:35;;;;;;;5.80;5.20;;;;;;;18.90;53.82;95861.22;5028211;28;20205;-25
2024/03/03 03:30:02;;;;;;;6.27;5.67;;;;;;;18.90;53.80;95873.94;5027360;28;20607;-26
2024/03/03 03:32:29;;;;;;;6.40;5.80;;;;;;;18.90;54.32;95876.47;5022637;28;20204;-25
2024/03/03 03:34:55;;;;;;;6.47;5.07;;;;;;;18.90;53.44;95873.94;5025118;28;20222;-25
2024/03/03 03:37:22;;;;;;;5.83;5.33;;;;;;;18.91;53.77;95875.63;5020258;28;20289;-25
2024/03/03 03:39:48;;;;;;;5.73;5.13;;;;;;;18.89;53.71;95878.16;5027503;28;20248;-27
2024/03/03 03:42:15;;;;;;;5.47;4.90;;;;;;;18.89;53.93;95870.53;5019529;28;20565;-25
2024/03/03 03:44:41;;;;;;;6.30;5.27;;;;;;;18.89;53.97;95877.31;5030006;28;20522;-27
2024/03/03 03:47:08;;;;;;;5.53;5.03;;;;;;;18.89;53.66;95885.78;5031528;28;20252;-25
2024/03/03 03:49:35;;;;;;;5.67;5.07;;;;;;;18.89;53.76;95888.34;5027754;28;20206;-25
2024/03/03 03:52:03;;;;;;;5.53;4.93;;;;;;;18.90;53.91;95887.53;5023504;28;20268;-25
2024/03/03 03:54:30;;;;;;;5.87;5.17;;;;;;;18.90;53.83;95882.44;5017934;28;20230;-26
2024/03/03 03:57:00;;;;;;;6.00;5.40;;;;;;;18.91;53.58;95873.09;5027316;28;20202;-25
2024/03/03 03:59:26;;;;;;;6.47;5.87;;;;;;;18.90;53.89;95879.91;5024281;28;20210;-25
2024/03/03 04:01:54;;;;;;;6.13;5.53;;;;;;;18.90;53.99;95887.53;5020336;28;20697;-25
2024/03/03 04:04:24;;;;;;;5.83;5.33;;;;;;;18.89;53.88;95890.06;5022254;28;20254;-26
2024/03/03 04:06:50;;;;;;;6.17;5.53;;;;;;;18.89;53.91;95885.78;5020913;28;20661;-25
2024/03/03 04:09:17;;;;;;;6.23;5.63;;;;;;;18.85;53.99;95875.56;5028374;28;20582;-26
2024/03/03 04:11:43;;;;;;;6.20;5.60;;;;;;;18.89;54.18;95882.41;5018292;28;20248;-25
2024/03/03 04:14:10;;;;;;;6.40;5.80;;;;;;;18.89;54.12;95879.88;5020424;28;20226;-25
2024/03/03 04:16:37;;;;;;;5.43;4.93;;;;;;;18.89;54.01;95882.41;5024555;28;20209;-25
2024/03/03 04:19:03;;;;;;;6.20;5.60;;;;;;;18.88;54.05;95886.66;5018548;28;20198;-27
2024/03/03 04:21:30;;;;;;;5.50;4.90;;;;;;;18.89;53.74;95887.50;5022573;28;20205;-25
2024/03/03 04:23:56;;;;;;;5.60;5.07;;;;;;;18.88;53.94;95889.19;5019991;28;20308;-25
2024/03/03 04:26:23;;;;;;;5.23;4.73;;;;;;;18.88;54.00;95893.41;5027248;28;20209;-25
2024/03/03 04:28:50;;;;;;;5.60;5.10;;;;;;;18.90;53.82;95891.75;5026746;28;20202;-27
2024/03/03 04:31:16;;;;;;;5.60;5.10;;;;;;;18.89;53.71;95877.31;5019826;28;20258;-26
2024/03/03 04:33:43;;;;;;;6.03;5.43;;;;;;;18.89;53.90;95878.16;5028479;28;20242;-26
2024/03/03 04:36:13;;;;;;;6.13;5.53;;;;;;;18.90;54.11;95879.03;5018286;28;20669;-27
2024/03/03 04:38:40;;;;;;;6.50;5.80;;;;;;;18.89;53.84;95877.31;5028757;28;20209;-25
2024/03/03 04:41:17;;;;;;;7.60;6.10;;;;;;;18.90;53.71;95884.13;5026652;28;20285;-26
2024/03/03 04:43:43;;;;;;;6.07;5.47;;;;;;;18.89;53.86;95879.88;5030899;28;20280;-25
2024/03/03 04:46:10;;;;;;;6.57;5.80;;;;;;;18.86;53.82;95880.66;5029173;28;20252;-25
2024/03/03 04:48:37;;;;;;;7.00;5.77;;;;;;;18.88;53.85;95886.66;5028605;28;20293;-27
2024/03/03 04:51:04;;;;;;;6.17;5.53;;;;;;;18.79;53.88;95863.63;5015528;28;20202;-27
2024/03/03 04:53:30;;;;;;;5.93;5.33;;;;;;;18.89;53.98;95884.97;5021346;28;20630;-34
2024/03/03 04:55:57;;;;;;;7.13;6.17;;;;;;;18.89;54.00;95883.25;5019988;28;20210;-25
2024/03/03 04:58:23;;;;;;;6.43;5.83;;;;;;;18.89;53.90;95880.72;5026649;28;20234;-29
2024/03/03 05:00:50;;;;;;;6.00;5.50;;;;;;;18.88;53.99;95881.56;5018225;28;20211;-25
2024/03/03 05:03:17;;;;;;;5.77;5.17;;;;;;;18.89;53.63;95877.31;5023552;28;20283;-25
2024/03/03 05:05:43;;;;;;;5.80;5.30;;;;;;;18.87;53.69;95882.41;5018737;28;20289;-30
2024/03/03 05:08:10;;;;;;;5.70;5.20;;;;;;;18.88;53.50;95885.78;5021457;28;20632;-25
2024/03/03 05:10:36;;;;;;;5.97;5.37;;;;;;;18.90;53.47;95899.38;5025003;28;20202;-25
2024/03/03 05:13:03;;;;;;;6.27;5.67;;;;;;;18.89;53.53;95888.34;5018496;28;20215;-25
2024/03/03 05:15:31;;;;;;;6.07;5.47;;;;;;;18.90;53.97;95886.66;5027069;28;20206;-26
2024/03/03 05:17:58;;;;;;;6.63;5.93;;;;;;;18.89;53.63;95883.25;5022567;28;20253;-26
2024/03/03 05:20:25;;;;;;;6.50;5.90;;;;;;;18.88;53.66;95876.47;5024372;28;20213;-26
2024/03/03 05:22:52;;;;;;;6.37;5.77;;;;;;;18.89;53.50;95880.72;5021705;28;20222;-26
2024/03/03 05:25:19;;;;;;;6.07;5.47;;;;;;;18.88;53.56;95881.56;5021088;28;20202;-25
2024/03/03 05:27:46;;;;;;;5.80;5.20;;;;;;;18.89;53.75;95890.06;5017241;28;20291;-27
2024/03/03 05:30:13;;;;;;;6.40;5.80;;;;;;;18.88;53.64;95888.31;5029222;28;20206;-28
2024/03/03 05:32:39;;;;;;;6.13;5.53;;;;;;;18.86;53.79;95888.31;5024679;28;20607;-27
2024/03/03 05:35:06;;;;;;;5.63;4.97;;;;;;;18.89;53.76;95895.97;5016762;28;20202;-25
2024/03/03 05:37:33;;;;;;;5.90;5.30;;;;;;;18.88;53.69;95898.50;5024242;28;20243;-32
2024/03/03 05:39:59;;;;;;;5.90;5.40;;;;;;;18.89;53.70;95900.22;5025310;28;20332;-25
2024/03/03 05:42:26;;;;;;;6.13;5.53;;;;;;;18.90;53.57;95889.22;5023110;28;20233;-25
2024/03/03 05:44:52;;;;;;;6.03;5.43;;;;;;;18.88;53.69;95891.72;5019224;28;20260;-25
2024/03/03 05:47:19;;;;;;;6.27;5.67;;;;;;;18.88;53.72;95884.09;5024086;28;20656;-25
2024/03/03 05:49:45;;;;;;;5.47;4.97;;;;;;;18.89;53.41;95898.53;5017759;28;20268;-25
2024/03/03 05:52:12;;;;;;;5.90;5.40;;;;;;;18.89;53.72;95884.97;5020168;28;20660;-25
2024/03/03 05:54:39;;;;;;;5.53;5.03;;;;;;;18.90;53.28;95884.13;5042592;23;20229;-25
2024/03/03 05:57:06;;;;;;;6.67;6.00;;;;;;;18.89;53.61;95883.25;5032450;28;20233;-25
2024/03/03 05:59:33;;;;;;;5.77;5.17;;;;;;;18.85;53.72;95885.72;5020745;28;20205;-25
2024/03/03 06:02:01;;;;;;;5.43;4.93;;;;;;;18.88;53.78;95895.97;5022058;28;20209;-26
2024/03/03 06:04:28;;;;;;;6.00;5.40;;;;;;;18.88;53.79;95895.97;5040184;28;20225;-25
2024/03/03 06:06:55;;;;;;;5.77;5.27;;;;;;;18.88;53.48;95899.38;5030738;28;20229;-26
2024/03/03 06:09:21;;;;;;;5.83;5.30;;;;;;;18.88;53.91;95907.00;5032145;28;20213;-25
2024/03/03 06:11:49;;;;;;;5.80;5.30;;;;;;;18.87;53.74;95902.75;5035325;28;20259;-31
2024/03/03 06:14:15;;;;;;;6.40;5.63;;;;;;;18.87;53.57;95905.31;5025157;28;20267;-25
2024/03/03 06:16:42;;;;;;;5.57;5.07;;;;;;;18.88;53.81;95903.59;5045985;28;20247;-33
2024/03/03 06:19:08;;;;;;;6.13;5.40;;;;;;;18.89;53.89;95912.97;5041841;28;20205;-25
2024/03/03 06:21:35;;;;;;;6.13;5.53;;;;;;;18.87;54.00;95897.66;5037500;28;20239;-25
2024/03/03 06:24:02;;;;;;;5.67;5.17;;;;;;;18.88;53.73;95912.09;5036509;28;20699;-25
2024/03/03 06:26:30;;;;;;;6.20;5.60;;;;;;;18.82;53.72;95900.97;5040810;28;20205;-26
2024/03/03 06:28:57;;;;;;;5.27;4.87;;;;;;;18.88;53.69;95927.38;5041566;28;20209;-26
2024/03/03 06:31:23;;;;;;;5.80;5.30;;;;;;;18.89;53.72;95923.16;5043685;28;20235;-25
2024/03/03 06:33:50;;;;;;;5.33;4.83;;;;;;;18.89;53.48;95923.16;5044324;28;20363;-25
2024/03/03 06:36:20;;;;;;;6.07;5.47;;;;;;;18.86;53.40;95918.84;5031378;28;20197;-27
2024/03/03 06:38:48;;;;;;;6.10;5.50;;;;;;;18.89;53.56;95916.34;5039814;28;20683;-26
2024/03/03 06:41:15;;;;;;;6.13;5.53;;;;;;;18.85;53.52;95922.22;5026047;28;20663;-26
2024/03/03 06:43:42;;;;;;;5.97;5.37;;;;;;;18.88;53.69;95939.22;5049912;28;20587;-25
2024/03/03 06:46:10;;;;;;;5.87;5.27;;;;;;;18.85;53.77;95927.31;5035713;28;20213;-25
2024/03/03 06:48:37;;;;;;;5.70;5.17;;;;;;;18.88;53.61;95923.94;5031775;28;20205;-25
2024/03/03 06:51:04;;;;;;;5.40;4.90;;;;;;;18.87;53.54;95923.13;5040976;28;20209;-28
2024/03/03 06:53:31;;;;;;;6.40;5.80;;;;;;;18.87;53.57;95912.06;5037075;28;20282;-25
2024/03/03 06:55:58;;;;;;;5.60;5.10;;;;;;;18.88;53.43;95921.41;5033189;28;20209;-25
2024/03/03 06:58:24;;;;;;;5.83;5.33;;;;;;;18.88;53.77;95911.22;5034608;28;20205;-26
2024/03/03 07:00:51;;;;;;;5.93;5.37;;;;;;;18.87;53.25;95920.56;5033800;28;20786;-27
2024/03/03 07:06:05;;;;;;;5.37;4.87;;;;;;;18.87;53.49;95914.63;5033009;28;20209;-25
2024/03/03 07:08:31;;;;;;;5.67;5.17;;;;;;;18.88;53.52;95913.78;5021951;28;20251;-25
2024/03/03 07:10:58;;;;;;;5.97;5.07;;;;;;;18.88;53.10;95916.31;5030654;28;21063;-26
2024/03/03 07:13:25;;;;;;;5.60;5.07;;;;;;;18.88;53.59;95919.72;5029403;28;20288;-26
2024/03/03 07:15:51;;;;;;;6.27;5.23;;;;;;;18.89;53.35;95915.50;5031499;28;20209;-25
2024/03/03 07:18:18;;;;;;;5.53;4.57;;;;;;;18.88;52.15;95912.09;5026840;28;20229;-28
2024/03/03 07:20:44;;;;;;;5.57;5.00;;;;;;;18.89;53.15;95920.59;5027594;28;20251;-26
2024/03/03 07:23:11;;;;;;;6.37;5.17;;;;;;;18.89;53.39;95918.06;5028539;28;20695;-26
2024/03/03 07:25:37;;;;;;;6.53;4.90;;;;;;;18.92;53.18;95916.38;5030991;28;20263;-25
2024/03/03 07:28:04;;;;;;;6.37;5.30;;;;;;;18.91;51.60;95922.31;5028588;28;20690;-25
2024/03/03 07:30:31;;;;;;;12.23;6.07;;;;;;;18.91;51.79;95913.81;5028035;28;20197;-25
2024/03/03 07:32:57;;;;;;;7.17;5.97;;;;;;;18.91;52.01;95913.81;5029294;28;20721;-26
2024/03/03 07:35:24;;;;;;;7.13;6.37;;;;;;;18.95;52.58;95923.22;5030262;28;20224;-25
2024/03/03 07:37:50;;;;;;;7.97;7.17;;;;;;;18.96;52.37;95912.19;5030567;28;20205;-27
2024/03/03 07:40:17;;;;;;;11.00;7.43;;;;;;;18.95;51.63;95913.03;5028309;28;20248;-25
2024/03/03 07:42:44;;;;;;;8.27;7.37;;;;;;;18.99;51.60;95922.44;5031816;28;20229;-25
2024/03/03 07:45:11;;;;;;;8.37;7.33;;;;;;;18.95;51.03;95930.88;5027165;28;20732;-25
2024/03/03 07:47:37;;;;;;;10.03;9.03;;;;;;;18.95;49.67;95921.50;5026204;28;20205;-26
2024/03/03 07:50:04;;;;;;;10.90;7.97;;;;;;;18.94;50.06;95924.03;5027841;28;20205;-26
2024/03/03 07:52:31;;;;;;;9.63;8.60;;;;;;;18.92;50.43;95916.38;5026672;28;20210;-25
2024/03/03 07:54:58;;;;;;;10.90;9.40;;;;;;;18.91;48.95;95906.19;5027717;28;20230;-25
2024/03/03 07:57:24;;;;;;;10.23;9.17;;;;;;;18.89;48.94;95905.31;5028014;28;20205;-26
2024/03/03 07:59:51;;;;;;;10.77;9.60;;;;;;;18.89;48.71;95910.41;5027575;28;20229;-25
2024/03/03 08:02:18;;;;;;;13.23;10.10;;;;;;;18.92;48.04;95907.91;5026898;28;20279;-28
2024/03/03 08:04:44;;;;;;;13.90;10.40;;;;;;;18.90;47.74;95907.88;5027703;28;20229;-30
2024/03/03 08:07:11;;;;;;;12.07;10.57;;;;;;;18.91;47.92;95912.13;5027717;28;20201;-25
2024/03/03 08:09:38;;;;;;;12.33;10.67;;;;;;;18.86;47.40;95898.47;5027912;28;20208;-25
2024/03/03 08:12:04;;;;;;;12.20;10.47;;;;;;;18.82;46.99;95895.88;5028811;28;20229;-34
2024/03/03 08:14:33;;;;;;;11.43;9.97;;;;;;;18.82;46.78;95891.66;5027489;28;20648;-25
2024/03/03 08:17:00;;;;;;;12.10;10.73;;;;;;;18.85;47.57;95899.31;5027751;28;20757;-25
2024/03/03 08:19:27;;;;;;;12.03;10.83;;;;;;;18.86;47.81;95902.75;5028587;28;20296;-26
2024/03/03 08:21:56;;;;;;;12.73;10.87;;;;;;;18.83;47.02;95907.78;5028376;28;20263;-28
2024/03/03 08:24:22;;;;;;;12.20;11.00;;;;;;;18.82;47.67;95903.50;5029766;28;20260;-25
2024/03/03 08:26:49;;;;;;;12.70;10.37;;;;;;;18.81;47.29;95906.91;5030936;28;20205;-25
2024/03/03 08:29:16;;;;;;;13.10;10.67;;;;;;;18.81;46.64;95905.22;5029821;28;20201;-27
2024/03/03 08:31:44;;;;;;;13.73;11.30;;;;;;;18.78;46.72;95910.25;5033664;28;20201;-25
2024/03/03 08:34:11;;;;;;;14.53;11.13;;;;;;;18.71;46.37;95890.63;5031023;28;20225;-25
2024/03/03 08:36:41;;;;;;;14.20;11.03;;;;;;;18.78;46.98;95897.53;5042862;28;20201;-28
2024/03/03 08:39:09;;;;;;;12.53;10.47;;;;;;;18.79;47.38;95900.91;5042760;28;20289;-25
2024/03/03 08:41:37;;;;;;;14.57;11.73;;;;;;;18.82;47.58;95906.91;5035351;28;20248;-25
2024/03/03 08:44:04;;;;;;;12.50;10.47;;;;;;;18.83;48.49;95916.25;5033765;28;20234;-25
2024/03/03 08:46:31;;;;;;;11.33;9.97;;;;;;;18.85;48.78;95912.06;5037772;28;20237;-25
2024/03/03 08:48:57;;;;;;;11.17;9.87;;;;;;;18.86;48.85;95912.91;5047204;28;20209;-25
2024/03/03 08:51:24;;;;;;;10.40;9.30;;;;;;;18.87;48.96;95909.53;5044594;28;20201;-25
2024/03/03 08:53:50;;;;;;;10.57;9.37;;;;;;;18.86;49.65;95907.81;5033637;28;20226;-26
2024/03/03 08:56:17;;;;;;;12.73;9.60;;;;;;;18.85;49.55;95913.72;5034600;28;20198;-26
2024/03/03 08:58:44;;;;;;;10.87;8.83;;;;;;;18.85;49.87;95901.00;5033507;28;20197;-25
2024/03/03 09:01:14;;;;;;;11.23;9.20;;;;;;;18.85;49.35;95912.06;5033005;28;20285;-25
2024/03/03 09:03:41;;;;;;;9.83;8.63;;;;;;;18.85;49.83;95899.31;5033044;28;20222;-25
2024/03/03 09:06:08;;;;;;;11.90;9.43;;;;;;;18.87;50.16;95907.84;5044520;28;20283;-25
2024/03/03 09:08:36;;;;;;;12.03;8.80;;;;;;;18.88;50.42;95901.91;5033663;28;20260;-25
2024/03/03 09:11:06;;;;;;;9.67;8.67;;;;;;;18.89;50.48;95905.31;5033344;28;20857;-28
2024/03/03 09:13:36;;;;;;;9.13;8.07;;;;;;;18.88;50.52;95898.50;5041928;28;20221;-26
2024/03/03 09:16:02;;;;;;;8.77;7.87;;;;;;;18.91;50.75;95908.72;5038826;28;20583;-25
2024/03/03 09:18:29;;;;;;;10.00;8.17;;;;;;;18.90;50.82;95910.44;5031117;28;20208;-25
2024/03/03 09:20:56;;;;;;;9.23;8.17;;;;;;;18.90;51.33;95902.81;5038308;28;20206;-25
2024/03/03 09:23:23;;;;;;;9.27;7.27;;;;;;;18.86;50.80;95898.47;5037458;28;20617;-25
2024/03/03 09:25:49;;;;;;;9.30;7.73;;;;;;;18.90;50.59;95902.81;5048263;28;20576;-25
2024/03/03 09:28:16;;;;;;;9.10;7.77;;;;;;;18.93;51.28;95907.06;5036187;28;20632;-27
2024/03/03 09:30:43;;;;;;;8.43;7.33;;;;;;;18.92;51.08;95916.38;5039341;28;20193;-25
2024/03/03 09:33:09;;;;;;;9.43;6.70;;;;;;;18.93;51.40;95904.53;5036807;28;20667;-26
2024/03/03 09:35:37;;;;;;;7.83;6.80;;;;;;;18.93;51.12;95900.31;5030068;28;20193;-26
2024/03/03 09:38:05;;;;;;;8.93;7.57;;;;;;;18.93;51.68;95897.75;5032463;28;20631;-28
2024/03/03 09:40:33;;;;;;;13.27;6.97;;;;;;;18.93;51.58;95885.03;5031734;28;20288;-27
2024/03/03 09:43:00;;;;;;;7.40;6.20;;;;;;;18.94;51.63;95881.63;5028930;28;20205;-25
2024/03/03 09:45:27;;;;;;;7.23;6.53;;;;;;;18.95;51.59;95879.97;5027253;28;20225;-26
2024/03/03 09:47:53;;;;;;;7.50;6.33;;;;;;;18.93;52.02;95877.38;5017686;28;20201;-26
2024/03/03 09:50:21;;;;;;;7.77;6.33;;;;;;;18.93;51.56;95872.31;5034692;28;20233;-25
2024/03/03 09:52:47;;;;;;;6.80;6.20;;;;;;;18.95;51.71;95880.78;5014109;28;20202;-25
2024/03/03 09:55:14;;;;;;;8.10;6.83;;;;;;;18.95;51.63;95883.34;5011691;28;20307;-25
2024/03/03 09:57:41;;;;;;;6.90;6.20;;;;;;;18.96;51.55;95887.63;5029293;28;20261;-25
2024/03/03 10:00:08;;;;;;;6.77;6.07;;;;;;;18.94;51.86;95883.31;5029561;28;20736;-27
2024/03/03 10:02:37;;;;;;;6.83;5.97;;;;;;;18.92;52.03;95878.19;5031100;28;20201;-26
2024/03/03 10:05:04;;;;;;;6.13;5.53;;;;;;;18.94;51.81;95876.53;5029650;28;20240;-28
2024/03/03 10:07:33;;;;;;;7.50;5.73;;;;;;;19.00;53.85;95873.22;5012260;28;20205;-25
2024/03/03 10:10:02;;;;;;;7.27;5.53;;;;;;;19.02;55.06;95874.09;5031900;28;20281;-25
2024/03/03 10:12:32;;;;;;;7.70;6.07;;;;;;;19.05;55.63;95861.41;5037457;28;20213;-25
2024/03/03 10:14:59;;;;;;;10.93;6.30;;;;;;;19.08;55.59;95864.00;5031376;28;20217;-25
2024/03/03 10:17:26;;;;;;;6.13;5.37;;;;;;;19.07;55.84;95852.09;5014193;28;20205;-26
2024/03/03 10:19:59;;;;;;;7.20;5.90;;;;;;;19.13;55.84;95854.72;5032094;28;20284;-25
2024/03/03 10:22:26;;;;;;;8.77;5.73;;;;;;;19.14;55.63;95862.38;5034554;28;20289;-25
2024/03/03 10:25:09;;;;;;;8.23;5.13;;;;;;;19.15;54.91;95855.59;5034921;28;20221;-25
2024/03/03 10:27:46;;;;;;;7.10;5.63;;;;;;;19.21;54.99;95865.84;5033897;28;20650;-26
2024/03/03 10:30:14;;;;;;;5.83;5.17;;;;;;;19.23;54.68;95865.03;5028724;28;20207;-27
2024/03/03 10:32:42;;;;;;;5.60;5.00;;;;;;;19.26;54.69;95859.13;5035141;28;20571;-25
2024/03/03 10:35:12;;;;;;;6.37;4.77;;;;;;;19.24;55.09;95853.16;5032060;28;20214;-25
2024/03/03 10:37:51;;;;;;;8.27;5.27;;;;;;;19.29;54.92;95856.66;5031761;28;20300;-26
2024/03/03 10:40:19;;;;;;;6.07;5.00;;;;;;;19.30;55.23;95853.28;5036959;28;20201;-25
2024/03/03 10:42:45;;;;;;;5.87;4.87;;;;;;;19.32;55.43;95855.00;5035607;28;20288;-26
2024/03/03 10:45:12;;;;;;;7.57;4.37;;;;;;;19.30;55.88;95850.72;5036239;28;20283;-25
2024/03/03 10:47:38;;;;;;;6.43;5.00;;;;;;;19.35;55.96;95854.16;5030927;28;20609;-26
2024/03/03 10:50:08;;;;;;;5.20;4.70;;;;;;;19.35;54.74;95862.66;5035049;28;20476;-25
2024/03/03 10:52:40;;;;;;;6.50;4.67;;;;;;;19.35;55.17;95860.13;5032347;28;20201;-25
2024/03/03 10:55:11;;;;;;;5.23;4.73;;;;;;;19.36;55.10;95851.63;5031294;28;20230;-25
2024/03/03 10:57:38;;;;;;;5.23;4.70;;;;;;;19.35;54.52;95846.53;5038873;28;20198;-27
2024/03/03 11:00:06;;;;;;;5.17;4.67;;;;;;;19.34;54.39;95847.38;5033821;28;20202;-25
2024/03/03 11:02:33;;;;;;;4.90;4.40;;;;;;;19.33;54.55;95840.59;5034586;28;20712;-25
2024/03/03 11:05:00;;;;;;;7.77;4.90;;;;;;;19.32;54.67;95846.50;5026090;28;20229;-27
2024/03/03 11:07:30;;;;;;;5.33;4.83;;;;;;;19.30;54.20;95838.00;5036514;28;20201;-26
2024/03/03 11:09:57;;;;;;;5.87;4.90;;;;;;;19.27;54.26;95841.34;5038586;28;20201;-25
2024/03/03 11:12:25;;;;;;;4.87;4.40;;;;;;;19.18;54.32;95825.06;5033969;28;20551;-25
2024/03/03 11:14:55;;;;;;;5.40;4.90;;;;;;;19.22;54.34;95832.75;5036538;28;20249;-25
2024/03/03 11:17:22;;;;;;;4.93;4.43;;;;;;;19.21;54.34;95837.84;5031764;28;20726;-25
2024/03/03 11:19:49;;;;;;;4.93;4.37;;;;;;;19.20;54.46;95839.53;5031983;28;20205;-26
2024/03/03 11:22:23;;;;;;;5.33;4.43;;;;;;;19.18;54.27;95835.25;5032907;28;20201;-25
2024/03/03 11:25:02;;;;;;;5.03;4.57;;;;;;;19.16;54.25;95837.78;5026416;28;20228;-26
2024/03/03 11:27:29;;;;;;;5.20;4.60;;;;;;;19.15;54.18;95838.63;5040421;28;20209;-26
2024/03/03 11:29:56;;;;;;;4.43;4.03;;;;;;;19.13;54.23;95832.66;5036626;28;20201;-25
2024/03/03 11:32:27;;;;;;;5.10;4.60;;;;;;;19.13;54.07;95834.38;5031676;28;20198;-25
2024/03/03 11:34:55;;;;;;;4.90;4.47;;;;;;;19.09;53.93;95818.19;5032205;28;20717;-25